Time;durP1;ratioP1;P1;durP2;ratioP2;P2;SDS_P1;SDS_P2;PMS_P1;PMS_P2;Temp;Humidity;BMP_temperature;BMP_pressure;BME280_temperature;BME280_humidity;BME280_pressure;Samples;Min_cycle;Max_cycle;Signal;HPM_P1;HPM_P2
2022/09/27 00:00:24;;;;;;;4.05;1.58;;;;;;;13.45;66.52;99657.09;5130263;28;20052;-63
2022/09/27 00:02:52;;;;;;;6.45;1.95;;;;;;;13.45;66.72;99654.41;5119456;28;20107;-62
2022/09/27 00:05:20;;;;;;;3.70;1.15;;;;;;;13.44;66.93;99674.38;5129231;28;20055;-63
2022/09/27 00:07:48;;;;;;;4.38;1.20;;;;;;;13.44;66.54;99672.50;5118293;28;20058;-62
2022/09/27 00:10:16;;;;;;;5.80;1.98;;;;;;;13.42;67.02;99668.44;5121778;28;20048;-63
2022/09/27 00:12:45;;;;;;;6.55;1.20;;;;;;;13.40;67.08;99676.81;5126086;27;20050;-63
2022/09/27 00:15:13;;;;;;;4.68;1.23;;;;;;;13.39;67.13;99667.09;5130308;27;20047;-63
2022/09/27 00:17:41;;;;;;;4.20;1.20;;;;;;;13.37;66.91;99665.75;5127067;28;20055;-63
2022/09/27 00:20:10;;;;;;;4.72;1.10;;;;;;;13.37;66.60;99671.13;5121670;27;20043;-63
2022/09/27 00:22:39;;;;;;;5.03;1.40;;;;;;;13.35;66.98;99666.81;5122382;27;20052;-63
2022/09/27 00:25:07;;;;;;;4.60;1.60;;;;;;;13.35;67.10;99669.50;5122498;28;20051;-63
2022/09/27 00:27:35;;;;;;;3.17;1.40;;;;;;;13.37;66.66;99671.13;5120611;27;20044;-63
2022/09/27 00:30:05;;;;;;;4.10;1.13;;;;;;;13.35;66.87;99680.31;5120954;27;20384;-63
2022/09/27 00:32:32;;;;;;;8.52;1.70;;;;;;;13.35;66.70;99680.31;5127866;27;20232;-63
2022/09/27 00:35:00;;;;;;;6.32;1.52;;;;;;;13.34;66.93;99680.56;5125429;27;20062;-63
2022/09/27 00:37:28;;;;;;;2.80;0.90;;;;;;;13.33;66.76;99685.16;5124992;27;20047;-63
2022/09/27 00:39:56;;;;;;;3.10;1.00;;;;;;;13.32;66.59;99686.25;5110651;28;20052;-63
2022/09/27 00:42:24;;;;;;;7.15;1.73;;;;;;;13.33;66.45;99703.25;5119759;27;20046;-63
2022/09/27 00:45:16;;;;;;;4.07;1.15;;;;;;;13.32;66.34;99709.72;5118702;28;20052;-63
2022/09/27 00:47:54;;;;;;;4.80;1.10;;;;;;;13.29;67.00;99708.38;5114954;28;20114;-63
2022/09/27 00:50:26;;;;;;;3.13;1.30;;;;;;;13.26;66.52;99706.19;5121302;28;20098;-63
2022/09/27 00:53:04;;;;;;;3.97;1.00;;;;;;;13.26;66.94;99703.50;5136665;27;20058;-63
2022/09/27 00:55:36;;;;;;;3.13;1.20;;;;;;;13.27;66.53;99701.63;5118684;28;20537;-63
2022/09/27 00:58:05;;;;;;;2.33;0.93;;;;;;;13.28;66.44;99698.66;5124107;27;20040;-63
2022/09/27 01:00:38;;;;;;;3.53;1.52;;;;;;;13.29;66.88;99704.84;5119979;27;20053;-63
2022/09/27 01:03:10;;;;;;;3.38;1.02;;;;;;;13.31;66.49;99702.69;5125687;27;20111;-63
2022/09/27 01:05:38;;;;;;;5.30;1.30;;;;;;;13.31;66.47;99700.00;5135612;27;20111;-63
2022/09/27 01:08:05;;;;;;;4.53;1.20;;;;;;;13.30;66.30;99691.09;5124900;27;20060;-63
2022/09/27 01:10:40;;;;;;;5.15;1.67;;;;;;;13.30;66.41;99695.69;5125654;27;20051;-63
2022/09/27 01:13:17;;;;;;;5.88;1.10;;;;;;;13.29;66.10;99692.19;5116544;27;20039;-63
2022/09/27 01:15:53;;;;;;;2.95;0.88;;;;;;;13.29;66.49;99684.06;5119564;28;20047;-63
2022/09/27 01:18:31;;;;;;;4.55;1.45;;;;;;;13.30;66.04;99698.38;5119762;27;20189;-63
2022/09/27 01:21:27;;;;;;;1.80;0.80;;;;;;;13.29;66.52;99692.19;5121101;27;20044;-63
2022/09/27 01:24:19;;;;;;;2.13;1.20;;;;;;;13.30;66.42;99684.88;5125740;27;20050;-63
2022/09/27 01:27:14;;;;;;;4.70;1.25;;;;;;;13.29;66.37;99692.19;5110487;27;20051;-63
2022/09/27 01:30:01;;;;;;;7.85;1.90;;;;;;;13.29;66.35;99694.06;5116224;28;20044;-63
2022/09/27 01:32:35;;;;;;;3.42;0.90;;;;;;;13.27;65.98;99696.22;5111914;28;20134;-63
2022/09/27 01:35:09;;;;;;;4.50;1.25;;;;;;;13.26;66.42;99697.28;5119548;27;20044;-63
2022/09/27 01:37:45;;;;;;;5.40;1.20;;;;;;;13.19;66.48;99692.16;5129485;27;20043;-63
2022/09/27 01:40:23;;;;;;;3.58;1.23;;;;;;;13.24;66.48;99702.16;5125793;27;20051;-63
2022/09/27 01:42:58;;;;;;;3.15;1.00;;;;;;;13.25;66.21;99711.88;5127892;27;20044;-63
2022/09/27 01:45:31;;;;;;;3.88;1.23;;;;;;;13.25;66.04;99709.16;5115411;27;20044;-63
2022/09/27 01:48:04;;;;;;;2.30;0.85;;;;;;;13.24;65.94;99712.94;5125619;28;20126;-63
2022/09/27 01:50:37;;;;;;;4.13;1.15;;;;;;;13.24;66.01;99708.34;5118476;27;20044;-63
2022/09/27 01:53:08;;;;;;;1.10;0.70;;;;;;;13.22;66.21;99710.50;5118257;27;20138;-63
2022/09/27 01:55:38;;;;;;;2.30;0.73;;;;;;;13.21;66.03;99714.28;5118291;27;20056;-62
2022/09/27 01:58:12;;;;;;;2.97;0.90;;;;;;;13.21;66.11;99714.28;5121579;28;20043;-63
2022/09/27 02:00:44;;;;;;;4.38;0.85;;;;;;;13.20;65.96;99709.16;5125417;27;20138;-62
2022/09/27 02:03:16;;;;;;;4.20;0.70;;;;;;;13.10;65.63;99699.13;5112824;28;20048;-62
2022/09/27 02:05:50;;;;;;;3.33;1.33;;;;;;;13.15;65.41;99709.94;5116569;28;20071;-63
2022/09/27 02:08:27;;;;;;;5.18;1.35;;;;;;;13.16;65.83;99732.31;5116143;27;20055;-63
2022/09/27 02:10:59;;;;;;;2.75;0.80;;;;;;;13.16;65.61;99729.63;5122599;28;20535;-62
2022/09/27 02:13:36;;;;;;;2.88;1.50;;;;;;;13.14;65.62;99724.50;5112250;27;20044;-63
2022/09/27 02:16:11;;;;;;;3.63;0.90;;;;;;;13.13;65.30;99722.88;5138626;27;20058;-63
2022/09/27 02:18:51;;;;;;;3.28;1.05;;;;;;;13.12;65.70;99710.47;5121836;28;20119;-62
2022/09/27 02:21:21;;;;;;;4.18;0.85;;;;;;;13.11;65.40;99733.13;5123619;27;20051;-62
2022/09/27 02:23:54;;;;;;;2.88;1.00;;;;;;;13.10;65.21;99726.09;5120059;27;20058;-63
2022/09/27 02:26:27;;;;;;;3.65;1.00;;;;;;;13.10;65.09;99728.78;5119581;27;20039;-63
2022/09/27 02:29:01;;;;;;;3.20;1.33;;;;;;;13.10;65.03;99725.28;5122455;28;20044;-63
2022/09/27 02:31:28;;;;;;;5.68;1.05;;;;;;;13.09;65.30;99729.88;5118394;27;20047;-63
2022/09/27 02:34:02;;;;;;;2.13;0.90;;;;;;;13.09;65.22;99731.75;5120903;27;20039;-63
2022/09/27 02:36:30;;;;;;;1.63;0.63;;;;;;;13.09;65.21;99720.97;5122582;28;20058;-63
2022/09/27 02:39:00;;;;;;;2.95;0.80;;;;;;;12.99;65.03;99706.38;5122106;27;20058;-63
2022/09/27 02:41:27;;;;;;;3.70;1.20;;;;;;;13.08;64.98;99722.03;5124076;27;20048;-62
2022/09/27 02:43:59;;;;;;;3.70;0.80;;;;;;;13.06;65.13;99724.19;5114046;28;20048;-62
2022/09/27 02:46:48;;;;;;;3.20;0.98;;;;;;;13.06;65.00;99745.78;5121439;28;20048;-63
2022/09/27 02:49:31;;;;;;;3.55;0.90;;;;;;;13.06;64.92;99743.06;5124604;27;20052;-62
2022/09/27 02:52:12;;;;;;;2.67;0.60;;;;;;;12.94;64.80;99719.03;5111783;28;20047;-62
2022/09/27 02:54:47;;;;;;;1.70;1.02;;;;;;;13.02;64.60;99729.31;5122922;27;20049;-62
2022/09/27 02:57:30;;;;;;;4.65;1.13;;;;;;;13.01;64.50;99728.50;5125092;27;20043;-63
2022/09/27 03:00:05;;;;;;;2.35;1.08;;;;;;;13.00;64.32;99723.38;5124358;27;20048;-62
2022/09/27 03:02:40;;;;;;;2.53;0.68;;;;;;;13.02;64.06;99721.22;5119316;27;20058;-63
2022/09/27 03:05:13;;;;;;;4.90;0.80;;;;;;;12.99;64.83;99719.88;5125402;28;20099;-63
2022/09/27 03:07:41;;;;;;;4.93;1.20;;;;;;;12.99;64.45;99721.75;5121876;27;20066;-63
2022/09/27 03:10:16;;;;;;;2.90;0.90;;;;;;;12.99;64.22;99729.84;5120296;28;20052;-62
2022/09/27 03:12:44;;;;;;;1.38;0.73;;;;;;;12.98;64.70;99734.44;5120025;28;20048;-63
2022/09/27 03:15:12;;;;;;;1.67;0.70;;;;;;;12.96;64.20;99730.38;5108847;28;20043;-63
2022/09/27 03:17:40;;;;;;;5.35;0.98;;;;;;;12.95;64.66;99724.16;5124506;27;20051;-63
2022/09/27 03:20:09;;;;;;;4.05;0.90;;;;;;;12.96;64.73;99723.09;5124048;28;20048;-63
2022/09/27 03:22:38;;;;;;;2.78;0.90;;;;;;;12.92;64.45;99719.28;5112876;28;20139;-63
2022/09/27 03:25:06;;;;;;;3.58;0.90;;;;;;;12.91;64.23;99720.38;5120768;28;20054;-62
2022/09/27 03:27:35;;;;;;;2.22;0.95;;;;;;;12.92;64.64;99723.88;5116256;28;20048;-62
2022/09/27 03:30:03;;;;;;;5.03;1.20;;;;;;;12.92;64.27;99718.50;5121402;28;20568;-62
2022/09/27 03:32:31;;;;;;;3.60;0.88;;;;;;;12.91;64.36;99728.47;5121117;28;20043;-63
2022/09/27 03:34:59;;;;;;;7.05;1.10;;;;;;;12.91;64.81;99728.47;5125141;28;20195;-62
2022/09/27 03:37:28;;;;;;;3.25;1.00;;;;;;;12.81;64.74;99719.53;5114213;28;20066;-63
2022/09/27 03:39:56;;;;;;;5.10;1.02;;;;;;;12.91;64.66;99733.84;5112211;28;20036;-62
2022/09/27 03:42:24;;;;;;;3.85;1.17;;;;;;;12.88;64.70;99731.69;5123789;28;20051;-62
2022/09/27 03:44:51;;;;;;;3.88;0.77;;;;;;;12.89;64.55;99735.19;5111480;28;20141;-63
2022/09/27 03:47:19;;;;;;;3.53;1.17;;;;;;;12.88;64.32;99728.19;5121305;28;20051;-62
2022/09/27 03:49:47;;;;;;;3.22;1.58;;;;;;;12.88;64.51;99729.00;5116429;28;20073;-63
2022/09/27 03:52:15;;;;;;;10.55;1.08;;;;;;;12.87;64.68;99735.47;5125356;28;20052;-62
2022/09/27 03:54:44;;;;;;;6.05;1.15;;;;;;;12.85;64.46;99739.50;5119584;28;20408;-62
2022/09/27 03:57:12;;;;;;;3.58;1.15;;;;;;;12.83;64.52;99755.13;5127867;27;20121;-62
2022/09/27 03:59:40;;;;;;;5.07;1.42;;;;;;;12.81;64.71;99757.28;5140552;27;20054;-62
2022/09/27 04:02:08;;;;;;;5.15;1.20;;;;;;;12.82;64.84;99761.59;5131511;27;20051;-62
2022/09/27 04:04:35;;;;;;;6.90;1.25;;;;;;;12.81;64.94;99768.06;5113521;28;20040;-62
2022/09/27 04:07:03;;;;;;;2.05;0.88;;;;;;;12.80;64.68;99763.75;5120591;27;20110;-62
2022/09/27 04:09:31;;;;;;;4.07;1.00;;;;;;;12.78;65.00;99769.41;5124639;28;20386;-63
2022/09/27 04:12:01;;;;;;;4.53;1.35;;;;;;;12.78;64.99;99773.97;5114968;27;20048;-62
2022/09/27 04:14:28;;;;;;;3.40;0.98;;;;;;;12.77;64.88;99778.56;5116849;28;20054;-62
2022/09/27 04:16:56;;;;;;;4.03;0.90;;;;;;;12.78;64.79;99782.06;5119580;27;20043;-62
2022/09/27 04:19:24;;;;;;;3.72;1.17;;;;;;;12.76;65.14;99786.91;5125527;28;20059;-62
2022/09/27 04:21:51;;;;;;;4.70;0.98;;;;;;;12.75;64.92;99777.19;5119153;27;20051;-62
2022/09/27 04:24:19;;;;;;;3.58;1.25;;;;;;;12.73;65.05;99782.84;5130024;27;20044;-63
2022/09/27 04:26:48;;;;;;;6.55;2.00;;;;;;;12.73;64.67;99776.66;5122552;27;20035;-63
2022/09/27 04:29:17;;;;;;;3.72;0.90;;;;;;;12.72;64.94;99770.44;5122977;27;20050;-62
2022/09/27 04:31:45;;;;;;;3.80;1.05;;;;;;;12.71;64.86;99772.31;5123297;27;20062;-62
2022/09/27 04:34:12;;;;;;;4.10;1.00;;;;;;;12.70;64.59;99762.63;5134927;27;20130;-62
2022/09/27 04:36:39;;;;;;;4.22;1.70;;;;;;;12.71;64.65;99766.13;5121340;28;20051;-62
2022/09/27 04:39:09;;;;;;;6.50;3.00;;;;;;;12.71;64.66;99764.25;5115990;27;20047;-63
2022/09/27 04:41:37;;;;;;;3.45;1.05;;;;;;;12.69;64.60;99763.69;5118798;27;20067;-62
2022/09/27 04:44:05;;;;;;;3.08;0.63;;;;;;;12.71;64.52;99761.53;5124034;28;20053;-62
2022/09/27 04:46:34;;;;;;;3.05;1.23;;;;;;;12.70;64.66;99756.41;5122479;27;20051;-62
2022/09/27 04:49:03;;;;;;;4.63;1.27;;;;;;;12.64;64.60;99744.78;5124621;27;20108;-62
2022/09/27 04:51:30;;;;;;;3.15;1.13;;;;;;;12.71;64.45;99756.16;5123692;28;20047;-61
2022/09/27 04:53:58;;;;;;;3.83;0.82;;;;;;;12.70;64.47;99759.94;5128584;27;20465;-61
2022/09/27 04:56:26;;;;;;;3.70;0.90;;;;;;;12.70;64.41;99751.03;5121885;27;20048;-60
2022/09/27 04:58:54;;;;;;;0.60;0.50;;;;;;;12.69;64.35;99752.91;5124445;27;20047;-60
2022/09/27 05:01:22;;;;;;;0.80;0.52;;;;;;;12.69;64.80;99752.09;5127874;27;20050;-60
2022/09/27 05:03:51;;;;;;;2.25;1.02;;;;;;;12.67;64.38;99749.66;5127975;28;20426;-60
2022/09/27 05:06:19;;;;;;;2.38;0.82;;;;;;;12.67;64.35;99756.94;5124750;27;20373;-59
2022/09/27 05:08:47;;;;;;;5.05;1.10;;;;;;;12.73;64.34;99755.09;5120876;28;20071;-59
2022/09/27 05:11:15;;;;;;;4.95;0.80;;;;;;;12.68;64.50;99764.75;5112337;28;20048;-61
2022/09/27 05:13:42;;;;;;;2.83;0.90;;;;;;;12.66;64.21;99763.41;5122517;28;20049;-61
2022/09/27 05:16:10;;;;;;;6.32;1.23;;;;;;;12.64;64.42;99769.06;5127280;27;20050;-61
2022/09/27 05:18:38;;;;;;;2.63;0.70;;;;;;;12.63;64.38;99769.31;5118308;28;20051;-61
2022/09/27 05:21:07;;;;;;;3.55;0.77;;;;;;;12.61;64.15;99780.38;5121748;27;20043;-61
2022/09/27 05:23:36;;;;;;;4.45;0.82;;;;;;;12.59;64.44;99777.13;5124376;28;20058;-61
2022/09/27 05:26:04;;;;;;;3.70;1.00;;;;;;;12.59;64.22;99785.19;5118818;27;20036;-63
2022/09/27 05:28:33;;;;;;;7.20;1.15;;;;;;;12.60;64.46;99786.00;5122953;28;20052;-62
2022/09/27 05:31:02;;;;;;;7.15;1.90;;;;;;;12.60;64.28;99786.81;5119107;28;20484;-62
2022/09/27 05:33:30;;;;;;;2.13;0.70;;;;;;;12.60;64.13;99783.31;5131034;27;20119;-63
2022/09/27 05:35:58;;;;;;;3.15;0.70;;;;;;;12.60;64.15;99780.63;5123060;27;20460;-63
2022/09/27 05:38:27;;;;;;;3.42;1.23;;;;;;;12.58;64.56;99777.38;5124576;27;20044;-64
2022/09/27 05:40:55;;;;;;;2.08;0.60;;;;;;;12.57;64.34;99784.66;5118512;27;20472;-63
2022/09/27 05:43:23;;;;;;;3.63;0.77;;;;;;;12.60;63.96;99780.63;5125846;28;20067;-62
2022/09/27 05:45:51;;;;;;;1.80;0.63;;;;;;;12.58;64.10;99774.69;5126149;27;20158;-61
2022/09/27 05:48:20;;;;;;;1.85;0.88;;;;;;;12.58;64.51;99783.56;5123509;28;20047;-71
2022/09/27 05:50:48;;;;;;;0.57;0.40;;;;;;;12.59;64.08;99784.38;5126321;28;20055;-61
2022/09/27 05:53:16;;;;;;;1.90;0.50;;;;;;;12.57;64.55;99786.53;5115705;27;20051;-62
2022/09/27 05:55:45;;;;;;;2.15;0.65;;;;;;;12.58;64.40;99790.84;5126751;27;20053;-63
2022/09/27 05:58:14;;;;;;;1.95;0.60;;;;;;;12.58;64.05;99783.56;5126244;27;20050;-63
2022/09/27 06:00:43;;;;;;;2.25;0.73;;;;;;;12.59;64.22;99795.97;5124619;27;20051;-64
2022/09/27 06:03:12;;;;;;;2.03;0.65;;;;;;;12.59;64.18;99798.69;4049041;28;10000359;-63
2022/09/27 06:05:41;;;;;;;1.95;0.60;;;;;;;12.59;64.26;99797.88;5121761;27;20054;-63
2022/09/27 06:08:11;;;;;;;2.13;0.70;;;;;;;12.59;64.16;99795.16;5117354;27;20067;-63
2022/09/27 06:10:40;;;;;;;1.83;0.60;;;;;;;12.58;64.31;99794.38;5120003;27;20056;-62
2022/09/27 06:13:11;;;;;;;1.05;0.60;;;;;;;12.59;64.21;99793.28;5108882;28;20408;-62
2022/09/27 06:15:41;;;;;;;4.95;1.13;;;;;;;12.60;63.93;99799.50;5125317;27;20069;-66
2022/09/27 06:18:11;;;;;;;5.93;1.15;;;;;;;12.58;64.00;99796.25;5124152;27;20051;-62
2022/09/27 06:20:40;;;;;;;0.70;0.50;;;;;;;12.56;63.85;99807.28;5122439;28;20058;-60
2022/09/27 06:23:09;;;;;;;3.22;1.63;;;;;;;12.46;64.03;99787.53;5125430;28;20090;-61
2022/09/27 06:25:38;;;;;;;2.47;0.70;;;;;;;12.52;64.28;99797.28;5124752;28;20143;-62
2022/09/27 06:28:07;;;;;;;1.20;0.70;;;;;;;12.52;63.98;99797.28;5114200;28;20056;-61
2022/09/27 06:30:39;;;;;;;1.70;0.80;;;;;;;12.52;64.15;99802.69;5111375;28;20040;-62
2022/09/27 06:33:09;;;;;;;4.88;1.20;;;;;;;12.51;64.06;99806.44;5127684;27;20071;-64
2022/09/27 06:35:37;;;;;;;2.35;1.25;;;;;;;12.53;64.40;99804.31;5125899;28;20043;-62
2022/09/27 06:38:07;;;;;;;3.38;1.10;;;;;;;12.53;64.26;99804.31;5117820;28;20051;-62
2022/09/27 06:40:35;;;;;;;5.90;1.13;;;;;;;12.53;64.00;99790.81;5122869;27;20052;-62
2022/09/27 06:43:04;;;;;;;0.93;0.82;;;;;;;12.52;64.48;99799.97;5118084;28;20052;-62
2022/09/27 06:45:34;;;;;;;1.38;0.93;;;;;;;12.51;64.23;99804.56;5124380;28;20051;-62
2022/09/27 06:48:05;;;;;;;1.33;0.75;;;;;;;12.51;64.33;99791.09;5121564;28;20040;-60
2022/09/27 06:50:34;;;;;;;2.38;1.02;;;;;;;12.52;64.31;99805.38;5123089;28;20048;-61
2022/09/27 06:53:02;;;;;;;2.30;0.90;;;;;;;12.52;64.50;99797.28;5115118;28;20048;-60
2022/09/27 06:55:30;;;;;;;3.20;1.00;;;;;;;12.52;64.58;99800.78;5124195;28;20054;-61
2022/09/27 07:00:45;;;;;;;1.52;1.02;;;;;;;12.51;64.39;99811.84;5124308;28;20071;-60
2022/09/27 07:03:14;;;;;;;1.80;1.10;;;;;;;12.49;64.46;99809.41;5124933;28;20058;-61
2022/09/27 07:05:42;;;;;;;2.63;1.20;;;;;;;12.49;64.52;99808.59;5124546;27;20056;-61
2022/09/27 07:08:11;;;;;;;1.50;1.25;;;;;;;12.50;64.40;99815.59;5135275;27;20068;-61
2022/09/27 07:10:40;;;;;;;2.30;1.17;;;;;;;12.48;64.47;99801.56;5118573;28;20503;-62
2022/09/27 07:13:09;;;;;;;4.20;1.17;;;;;;;12.47;64.85;99803.44;5112375;28;20058;-62
2022/09/27 07:15:38;;;;;;;1.83;1.10;;;;;;;12.47;64.74;99816.13;5123516;27;20059;-62
2022/09/27 07:18:07;;;;;;;2.25;1.05;;;;;;;12.47;64.96;99814.22;5130402;27;20040;-62
2022/09/27 07:20:37;;;;;;;1.48;1.10;;;;;;;12.47;64.85;99808.84;5127760;27;20583;-62
2022/09/27 07:23:14;;;;;;;2.32;0.93;;;;;;;12.41;64.88;99803.69;5102102;28;10001258;-62
2022/09/27 07:25:42;;;;;;;3.13;1.08;;;;;;;12.49;65.01;99817.47;5120738;27;20264;-63
2022/09/27 07:28:14;;;;;;;8.70;1.40;;;;;;;12.49;64.88;99819.38;5120484;28;20048;-62
2022/09/27 07:30:48;;;;;;;2.55;0.80;;;;;;;12.48;64.75;99821.25;5123622;28;20063;-64
2022/09/27 07:33:16;;;;;;;2.47;1.23;;;;;;;12.48;65.21;99823.13;5119317;28;20094;-63
2022/09/27 07:35:45;;;;;;;2.33;1.02;;;;;;;12.46;64.81;99825.28;5117075;28;20055;-63
2022/09/27 07:38:13;;;;;;;2.17;1.02;;;;;;;12.46;65.18;99827.97;5110042;28;20047;-62
2022/09/27 07:40:41;;;;;;;1.95;1.20;;;;;;;12.45;65.00;99827.16;5119342;28;20055;-62
2022/09/27 07:43:11;;;;;;;2.38;1.00;;;;;;;12.45;65.34;99827.16;5120502;28;20074;-62
2022/09/27 07:45:38;;;;;;;3.15;1.25;;;;;;;12.45;65.38;99820.94;5121195;28;20047;-63
2022/09/27 07:48:07;;;;;;;3.63;1.20;;;;;;;12.46;65.24;99827.97;5119117;28;20043;-63
2022/09/27 07:50:37;;;;;;;2.33;1.40;;;;;;;12.45;65.22;99826.34;5116832;28;20054;-62
2022/09/27 07:53:06;;;;;;;2.58;1.13;;;;;;;12.53;65.34;99823.97;5116426;28;20055;-63
2022/09/27 07:55:34;;;;;;;2.08;1.20;;;;;;;12.45;65.26;99816.38;5121426;28;20058;-63
2022/09/27 07:58:06;;;;;;;2.35;1.27;;;;;;;12.52;65.15;99830.44;5117561;28;20051;-62
2022/09/27 08:00:35;;;;;;;1.75;1.05;;;;;;;12.50;65.49;99835.28;5116678;28;20060;-63
2022/09/27 08:03:06;;;;;;;4.60;1.60;;;;;;;12.48;65.24;99837.41;5117140;28;20548;-63
2022/09/27 08:05:35;;;;;;;2.15;1.27;;;;;;;12.50;65.34;99837.16;5118050;28;20513;-63
2022/09/27 08:08:04;;;;;;;3.80;1.23;;;;;;;12.51;65.50;99844.16;5116310;28;20469;-63
2022/09/27 08:10:34;;;;;;;3.03;1.10;;;;;;;12.50;65.54;99846.06;5113547;28;20058;-63
2022/09/27 08:13:03;;;;;;;2.67;1.40;;;;;;;12.51;65.57;99844.16;5118514;28;20044;-62
2022/09/27 08:15:32;;;;;;;2.92;1.30;;;;;;;12.51;65.35;99847.69;5119159;28;20047;-63
2022/09/27 08:18:00;;;;;;;1.63;1.05;;;;;;;12.52;65.29;99852.00;5117354;28;20039;-62
2022/09/27 08:20:27;;;;;;;4.63;1.40;;;;;;;12.52;65.42;99854.69;5120088;28;20065;-63
2022/09/27 08:22:55;;;;;;;6.45;1.70;;;;;;;12.51;65.67;99853.06;5115237;28;20051;-63
2022/09/27 08:25:23;;;;;;;2.28;1.50;;;;;;;12.50;65.88;99856.84;5116881;28;20048;-62
2022/09/27 08:27:56;;;;;;;2.25;1.17;;;;;;;12.49;65.64;99855.22;5116386;28;20047;-63
2022/09/27 08:30:25;;;;;;;3.33;1.40;;;;;;;12.50;65.67;99854.13;5118053;28;20111;-62
2022/09/27 08:32:55;;;;;;;2.22;1.35;;;;;;;12.51;65.95;99844.97;5118568;28;20043;-63
2022/09/27 08:35:23;;;;;;;2.03;1.10;;;;;;;12.53;65.62;99856.31;5120957;28;20428;-62
2022/09/27 08:37:55;;;;;;;3.58;1.65;;;;;;;12.53;65.87;99850.94;5120449;27;20048;-62
2022/09/27 08:40:26;;;;;;;2.25;1.42;;;;;;;12.54;65.76;99855.25;5122685;28;20043;-63
2022/09/27 08:43:04;;;;;;;5.80;2.00;;;;;;;12.53;65.55;99850.13;5122147;28;20055;-62
2022/09/27 08:45:37;;;;;;;5.78;1.92;;;;;;;12.51;65.82;99861.16;5121971;28;20040;-62
2022/09/27 08:48:06;;;;;;;4.97;1.67;;;;;;;12.50;65.90;99848.75;5118186;28;20056;-63
2022/09/27 08:50:36;;;;;;;1.80;1.50;;;;;;;12.51;65.75;99850.38;5120240;27;20075;-62
2022/09/27 08:53:17;;;;;;;2.58;1.67;;;;;;;12.52;65.98;99854.69;5121362;28;20050;-63
2022/09/27 08:55:48;;;;;;;3.85;2.40;;;;;;;12.53;65.90;99847.41;5122115;28;20051;-63
2022/09/27 08:58:28;;;;;;;3.75;1.85;;;;;;;12.54;65.75;99852.56;5119287;27;20051;-62
2022/09/27 09:00:59;;;;;;;2.60;1.83;;;;;;;12.56;65.88;99852.28;5120744;27;20073;-63
2022/09/27 09:03:29;;;;;;;4.35;2.60;;;;;;;12.55;65.86;99854.19;5118562;27;20062;-62
2022/09/27 09:06:11;;;;;;;3.10;1.80;;;;;;;12.55;65.80;99847.97;5119710;28;20059;-63
2022/09/27 09:08:54;;;;;;;5.28;1.98;;;;;;;12.56;65.95;99858.50;5120412;28;20060;-63
2022/09/27 09:14:44;;;;;;;6.85;2.38;;;;;;;12.57;66.13;99849.34;5120832;28;20532;-63
2022/09/27 09:17:22;;;;;;;5.60;2.75;;;;;;;12.57;66.20;99846.66;5120403;28;20142;-63
2022/09/27 09:20:03;;;;;;;6.18;2.50;;;;;;;12.56;66.06;99853.09;5117679;28;20057;-63
2022/09/27 09:22:47;;;;;;;6.57;2.70;;;;;;;12.57;66.07;99853.91;5116743;28;20077;-63
2022/09/27 09:25:23;;;;;;;4.00;2.53;;;;;;;12.56;66.51;99855.00;5117050;28;20055;-63
2022/09/27 09:28:04;;;;;;;5.40;3.00;;;;;;;12.56;66.21;99861.19;5117689;28;20055;-63
2022/09/27 09:30:42;;;;;;;4.43;2.80;;;;;;;12.56;66.98;99865.78;5122080;28;20039;-61
2022/09/27 09:33:21;;;;;;;5.10;3.03;;;;;;;12.58;66.56;99866.31;5119857;27;20051;-62
2022/09/27 09:35:57;;;;;;;7.05;3.33;;;;;;;12.57;66.82;99867.41;5118990;28;20148;-62
2022/09/27 09:38:33;;;;;;;4.57;3.13;;;;;;;12.54;66.63;99871.41;5122822;27;20135;-62
2022/09/27 09:41:05;;;;;;;4.43;3.17;;;;;;;12.54;66.60;99862.53;5120013;28;20319;-62
2022/09/27 09:43:38;;;;;;;7.40;4.03;;;;;;;12.53;66.77;99869.78;5119621;27;20044;-62
2022/09/27 09:46:14;;;;;;;6.70;3.15;;;;;;;12.57;66.48;99865.50;5119477;27;20043;-62
2022/09/27 09:48:45;;;;;;;6.28;4.32;;;;;;;12.57;67.09;99867.41;5119266;28;20115;-62
2022/09/27 09:51:21;;;;;;;6.45;3.63;;;;;;;12.55;67.02;99878.44;5122017;28;20058;-63
2022/09/27 09:53:54;;;;;;;5.60;3.20;;;;;;;12.56;66.74;99866.59;5118216;27;20070;-62
2022/09/27 09:56:25;;;;;;;6.82;3.20;;;;;;;12.46;66.95;99854.91;5118694;27;20054;-63
2022/09/27 09:58:57;;;;;;;4.97;3.33;;;;;;;12.55;66.99;99872.22;5120493;27;20053;-62
2022/09/27 10:01:30;;;;;;;6.45;3.25;;;;;;;12.57;66.95;99878.19;5117414;28;20056;-62
2022/09/27 10:03:57;;;;;;;5.05;3.05;;;;;;;12.57;67.19;99870.91;5117704;28;20055;-62
2022/09/27 10:06:28;;;;;;;3.53;2.78;;;;;;;12.58;67.18;99877.09;5121818;28;20048;-63
2022/09/27 10:08:56;;;;;;;3.95;2.60;;;;;;;12.58;67.00;99875.22;5121091;28;20050;-63
2022/09/27 10:11:26;;;;;;;7.28;3.10;;;;;;;12.49;67.00;99863.28;5117626;28;20058;-63
2022/09/27 10:13:55;;;;;;;5.25;3.00;;;;;;;12.57;66.79;99881.69;5119295;27;20107;-62
2022/09/27 10:16:27;;;;;;;3.97;2.63;;;;;;;12.54;66.73;99876.00;5118459;28;20043;-63
2022/09/27 10:19:02;;;;;;;3.30;2.50;;;;;;;12.54;66.99;99874.13;5120050;27;20057;-63
2022/09/27 10:21:30;;;;;;;3.28;2.22;;;;;;;12.51;66.78;99882.72;5118726;28;20048;-63
2022/09/27 10:24:04;;;;;;;4.78;2.58;;;;;;;12.50;66.90;99877.59;5116629;28;20055;-63
2022/09/27 10:26:33;;;;;;;6.20;2.40;;;;;;;12.48;66.55;99877.84;5119044;27;20441;-63
2022/09/27 10:29:21;;;;;;;5.70;2.00;;;;;;;12.49;66.48;99875.97;5120446;27;20039;-63
2022/09/27 10:31:50;;;;;;;7.63;1.85;;;;;;;12.49;66.46;99871.38;5118843;28;20139;-63
2022/09/27 10:34:28;;;;;;;2.45;1.50;;;;;;;12.50;66.64;99877.59;5119499;28;20055;-63
2022/09/27 10:37:06;;;;;;;2.47;1.38;;;;;;;12.52;66.31;99878.13;5116735;28;20614;-63
2022/09/27 10:39:35;;;;;;;2.53;1.48;;;;;;;12.45;66.24;99874.84;5120458;28;20042;-64
2022/09/27 10:42:19;;;;;;;4.88;1.38;;;;;;;12.49;66.12;99876.78;5118161;27;20047;-63
2022/09/27 10:44:47;;;;;;;5.57;1.30;;;;;;;12.50;66.47;99878.41;5115807;27;20443;-63
2022/09/27 10:47:21;;;;;;;2.63;1.50;;;;;;;12.50;66.47;99882.97;5114374;27;20469;-63
2022/09/27 10:49:51;;;;;;;3.00;1.20;;;;;;;12.50;65.95;99878.41;5119670;28;20039;-63
2022/09/27 10:52:21;;;;;;;2.55;1.30;;;;;;;12.50;65.93;99880.28;5118459;28;20072;-63
2022/09/27 10:54:55;;;;;;;3.97;1.23;;;;;;;12.50;66.27;99891.06;5116634;27;20392;-63
2022/09/27 10:57:25;;;;;;;3.90;1.40;;;;;;;12.49;65.87;99884.03;5112534;27;20593;-64
2022/09/27 10:59:56;;;;;;;4.97;0.90;;;;;;;12.48;65.91;99891.31;5118414;27;20281;-63
2022/09/27 11:02:28;;;;;;;3.28;1.13;;;;;;;12.48;66.05;99885.94;5118426;27;20063;-64
2022/09/27 11:05:07;;;;;;;1.88;0.70;;;;;;;12.48;66.17;99880.53;5118250;28;20052;-63
2022/09/27 11:07:49;;;;;;;4.85;1.00;;;;;;;12.49;66.00;99881.34;5114745;28;20066;-64
2022/09/27 11:10:27;;;;;;;2.45;0.88;;;;;;;12.46;66.09;99885.38;5116143;28;20043;-63
2022/09/27 11:13:13;;;;;;;3.33;1.63;;;;;;;12.47;66.03;99878.91;5117741;28;20051;-64
2022/09/27 11:16:02;;;;;;;3.47;1.77;;;;;;;12.49;65.92;99881.34;5117561;28;20052;-64
2022/09/27 11:18:42;;;;;;;2.53;1.25;;;;;;;12.47;65.92;99875.41;5118996;28;20047;-64
2022/09/27 11:21:23;;;;;;;3.75;0.98;;;;;;;12.49;66.00;99870.56;5116629;28;20059;-64
2022/09/27 11:24:12;;;;;;;2.78;0.95;;;;;;;12.49;66.13;99854.41;5115743;28;20412;-64
2022/09/27 11:26:53;;;;;;;1.92;0.70;;;;;;;12.49;65.71;99862.47;5116639;28;20120;-64
2022/09/27 11:29:34;;;;;;;2.28;0.95;;;;;;;12.49;65.63;99855.22;5117111;28;20500;-64
2022/09/27 11:32:19;;;;;;;2.72;0.85;;;;;;;12.50;66.07;99858.72;5118366;28;20054;-64
2022/09/27 11:35:05;;;;;;;3.55;1.05;;;;;;;12.51;65.69;99847.69;5118752;28;20047;-64
2022/09/27 11:37:47;;;;;;;1.80;0.75;;;;;;;12.52;66.05;99851.19;5119057;28;20039;-64
2022/09/27 11:40:30;;;;;;;3.70;1.40;;;;;;;12.53;65.62;99850.94;5119748;28;20078;-64
2022/09/27 11:43:15;;;;;;;2.35;0.55;;;;;;;12.54;65.61;99852.56;5120131;28;20066;-64
2022/09/27 11:45:55;;;;;;;0.90;0.80;;;;;;;12.55;65.67;99850.66;5118277;28;20047;-63
2022/09/27 11:49:06;;;;;;;2.83;0.77;;;;;;;12.54;65.88;99849.03;5119554;28;20043;-64
2022/09/27 11:51:53;;;;;;;0.88;0.70;;;;;;;12.53;65.87;99842.03;5122042;28;20130;-64
2022/09/27 11:54:45;;;;;;;2.63;0.80;;;;;;;12.51;65.71;99841.47;5116597;28;20156;-63
2022/09/27 11:57:25;;;;;;;1.40;0.90;;;;;;;12.53;65.50;99844.72;5115333;28;20056;-63
2022/09/27 12:00:09;;;;;;;3.42;0.77;;;;;;;12.51;65.71;99847.69;5113746;28;20115;-64
2022/09/27 12:03:13;;;;;;;1.45;0.90;;;;;;;12.52;65.63;99846.59;5119136;28;20053;-63